Aeroporto :
LOGIN :

Iscrizione | Disclaimer

   EN    FR    IT 

 










Sommario :    VFR   VFR Marginale   IFR   IFR Intensivo   IFR Molto Intensivo
Visibilità : 
Base nubi : 
>= 8 km
>= 3000ft
5 / 8 km
1000 / 3000 ft
1500m / 5 km
500 / 1000 ft
800 / 1500m
200 / 500 ft
< 800m
< 200 ft
Simboli :   Temporali  Nebbia  Neve Forte  Precipitazioni Forti  Vento > 20 kt
SIGMETs :   Varie  Temporali  Ghiacco  Turbolenza  Onda orograficha  Ceneri Vulcaniche






- Altitudine del aeroporto : 325 ft
- Codice IATA : BES


LFRB - Brest

ULTIMO METAR :
  • 230130Z AUTO 26006KT 9999 BKN007 OVC020 17/16 Q1020 TEMPO 1500 -RADZ BR VV///

METARs OBSOLETI :
  • 230100Z AUTO 28007KT 260V320 4900 -RADZ BR OVC004 17/17 Q1020 TEMPO 0500 FG VV///
  • 230030Z AUTO 26006KT 4900 -DZ BR OVC004 17/17 Q1020 TEMPO 0500 FG VV///
  • 230000Z AUTO 26008KT 5000 -DZ BR OVC004 17/17 Q1020 TEMPO 0500 FG VV///
  • 222330Z AUTO 26009KT 4200 -RA BR OVC004 17/17 Q1020 TEMPO 0500 FG VV///
  • 222300Z AUTO 25009KT 6000 -DZ OVC004 17/17 Q1020 TEMPO 0500 FG VV///
  • 222230Z AUTO 25009KT 6000 -DZ OVC004 17/17 Q1020 TEMPO 0500 FG VV///
  • 222200Z AUTO 24010KT 4600 -DZ BR OVC004 17/17 Q1020 TEMPO 0500 FG VV///
  • 222130Z AUTO 24010KT 210V270 4100 -DZ BR OVC004 17/17 Q1020 TEMPO 0500 FG VV///
  • 222100Z AUTO 23010KT 4600 -DZ BR OVC004 17/17 Q1020 TEMPO 0500 FG VV///
  • 222030Z AUTO 24011KT 210V270 1800 -RA BR OVC002 17/17 Q1020 TEMPO 0500 FG VV///

TAF TAF LFRB
Valido dal 23 a 00 ore il 24 a 06 ore UTC


222300Z 2300/2406 27010KT 9999 OVC006
TEMPO 2300/2304 1500 -RADZ BR OVC002
PROB40
TEMPO 2300/2303 0500 FG VV///
BECMG 2300/2302 VRB05KT
BECMG 2304/2306 BKN020
TEMPO 2306/2309 BKN012
BECMG 2312/2314 32010KT
BECMG 2316/2318 VRB05KT
TEMPO 2320/2406 3000 BR BKN008
ATIS : +33 2 98 32 02 71



MetMap, La meteo Aeronautica in un colpo d'occhio ! - Copyright ORBIFLY Dicembre 2007 - Disclaimer

ORBIFLY MET'MAP TEAM :

Programmazione e sviluppo : Alexandra Zaïnal
Concezione : Baudouin d'Aumeries
Supporto tecnico e logistico : Manuel Goepfert
Aiuto : Marc-Olivier Méhu
Aiuto per la traduzione : Arnaldo La Scala




FONTI E CREDITI :

   NOAA